createdAt,value
2023-03-17T00:02:00.882Z,-0.57
2023-03-17T00:04:35.899Z,-0.71
2023-03-17T00:07:05.523Z,-0.27
2023-03-17T00:09:37.284Z,0.09
2023-03-17T00:12:13.059Z,0.26
2023-03-17T00:14:49.388Z,-0.27
2023-03-17T00:17:20.187Z,0.06
2023-03-17T00:20:00.913Z,0.29
2023-03-17T00:22:34.177Z,0.35
2023-03-17T00:25:05.744Z,0.43
2023-03-17T00:27:38.419Z,-0.08
2023-03-17T00:30:19.025Z,-0.28
2023-03-17T00:32:52.108Z,-0.21
2023-03-17T00:35:33.755Z,-0.48
2023-03-17T00:38:09.282Z,-0.25
2023-03-17T00:40:37.251Z,-0.67
2023-03-17T00:43:22.172Z,0.07
2023-03-17T00:45:51.176Z,-0.23
2023-03-17T00:48:42.026Z,0.00
2023-03-17T00:51:18.601Z,0.11
2023-03-17T00:56:36.027Z,-0.40
2023-03-17T00:59:07.004Z,-0.47
2023-03-17T01:01:34.942Z,-0.34
2023-03-17T01:04:05.709Z,-0.77
2023-03-17T01:06:42.706Z,-1.28
2023-03-17T01:09:22.646Z,-1.55
2023-03-17T01:11:58.254Z,-1.25
2023-03-17T01:14:32.338Z,-1.00
2023-03-17T01:17:06.364Z,-0.97
2023-03-17T01:19:41.517Z,-0.88
2023-03-17T01:22:25.395Z,-0.71
2023-03-17T01:25:02.029Z,-0.60
2023-03-17T01:27:45.135Z,-0.69
2023-03-17T01:30:39.897Z,-0.45
2023-03-17T01:33:18.483Z,-0.50
2023-03-17T01:35:53.450Z,-0.33
2023-03-17T01:38:23.754Z,-0.53
2023-03-17T01:43:35.183Z,-1.42
2023-03-17T01:46:50.520Z,-1.47
2023-03-17T01:49:43.941Z,-1.26
2023-03-17T01:52:19.060Z,-1.41
2023-03-17T01:55:32.082Z,-1.56
2023-03-17T01:58:12.346Z,-1.71
2023-03-17T02:00:49.159Z,-1.72
2023-03-17T02:03:19.991Z,-1.46
2023-03-17T02:05:51.126Z,-1.32
2023-03-17T02:08:19.767Z,-0.75
2023-03-17T02:10:54.534Z,-0.71
2023-03-17T02:13:41.123Z,-0.69
2023-03-17T02:16:16.991Z,-0.76
2023-03-17T02:18:48.443Z,-0.61
2023-03-17T02:22:02.205Z,-0.86
2023-03-17T02:24:45.614Z,-1.17
2023-03-17T02:27:24.151Z,-1.28
2023-03-17T02:30:00.805Z,-1.24
2023-03-17T02:35:23.011Z,-0.53
2023-03-17T02:38:10.721Z,-0.92
2023-03-17T02:40:48.543Z,-1.08
2023-03-17T02:43:17.408Z,-1.07
2023-03-17T02:45:54.190Z,-1.13
2023-03-17T02:48:25.652Z,-0.82
2023-03-17T02:50:53.597Z,-1.23
2023-03-17T02:56:11.557Z,-1.45
2023-03-17T02:58:42.082Z,-1.32
2023-03-17T03:01:11.162Z,-1.26
2023-03-17T03:06:27.642Z,-0.63
2023-03-17T03:09:05.413Z,-1.02
2023-03-17T03:11:35.887Z,-0.83
2023-03-17T03:14:07.928Z,-0.91
2023-03-17T03:16:41.426Z,-0.90
2023-03-17T03:19:16.534Z,-1.12
2023-03-17T03:21:57.171Z,-1.31
2023-03-17T03:24:41.330Z,-1.10
2023-03-17T03:27:19.179Z,-1.38
2023-03-17T03:29:52.322Z,-1.14
2023-03-17T03:32:22.722Z,-1.31
2023-03-17T03:34:53.104Z,-1.79
2023-03-17T03:37:22.962Z,-1.97
2023-03-17T03:39:53.107Z,-1.87
2023-03-17T03:42:26.897Z,-2.01
2023-03-17T03:44:58.892Z,-2.03
2023-03-17T03:47:30.869Z,-1.92
2023-03-17T03:50:03.038Z,-1.69
2023-03-17T03:52:34.131Z,-1.90
2023-03-17T03:55:04.872Z,-1.67
2023-03-17T03:57:46.436Z,-2.01
2023-03-17T04:00:22.704Z,-1.63
2023-03-17T04:02:52.902Z,-1.30
2023-03-17T04:05:30.567Z,-1.34
2023-03-17T04:08:04.473Z,-1.69
2023-03-17T04:10:36.598Z,-1.62
2023-03-17T04:13:11.014Z,-1.54
2023-03-17T04:15:46.104Z,-1.38
2023-03-17T04:18:31.549Z,-1.53
2023-03-17T04:21:12.317Z,-1.42
2023-03-17T04:23:45.821Z,-1.58
2023-03-17T04:26:21.732Z,-1.34
2023-03-17T04:28:54.961Z,-1.64
2023-03-17T04:31:26.486Z,-1.69
2023-03-17T04:33:56.716Z,-1.93
2023-03-17T04:36:37.310Z,-1.35
2023-03-17T04:39:08.599Z,-1.41
2023-03-17T04:41:39.497Z,-1.95
2023-03-17T04:44:23.630Z,-2.44
2023-03-17T04:47:02.292Z,-2.19
2023-03-17T04:49:43.224Z,-2.10
2023-03-17T04:52:24.908Z,-1.72
2023-03-17T04:54:55.349Z,-1.43
2023-03-17T04:57:27.137Z,-1.98
2023-03-17T05:00:00.964Z,-2.02
2023-03-17T05:02:31.475Z,-2.02
2023-03-17T05:05:05.761Z,-1.90
2023-03-17T05:07:48.041Z,-2.31
2023-03-17T05:10:19.536Z,-2.44
2023-03-17T05:12:48.767Z,-2.19
2023-03-17T05:15:20.066Z,-1.76
2023-03-17T05:17:53.792Z,-1.40
2023-03-17T05:20:26.967Z,-1.98
2023-03-17T05:23:07.669Z,-1.69
2023-03-17T05:25:35.896Z,-2.02
2023-03-17T05:28:07.730Z,-2.13
2023-03-17T05:30:45.186Z,-2.04
2023-03-17T05:33:29.364Z,-1.60
2023-03-17T05:36:02.278Z,-2.32
2023-03-17T05:38:47.935Z,-2.43
2023-03-17T05:41:29.157Z,-2.45
2023-03-17T05:44:00.462Z,-2.32
2023-03-17T05:46:35.023Z,-1.76
2023-03-17T05:49:12.065Z,-1.19
2023-03-17T05:51:44.034Z,-0.95
2023-03-17T05:54:14.433Z,-1.66
2023-03-17T05:56:49.018Z,-1.90
2023-03-17T05:59:19.349Z,-1.84
2023-03-17T06:01:53.188Z,-1.17
2023-03-17T06:04:29.440Z,-0.88
2023-03-17T06:07:00.105Z,-0.61
2023-03-17T06:12:28.771Z,-0.32
2023-03-17T06:14:58.124Z,-0.30
2023-03-17T06:17:29.390Z,0.10
2023-03-17T06:20:15.557Z,-0.39
2023-03-17T06:23:04.080Z,-0.73
2023-03-17T06:25:35.500Z,-0.50
2023-03-17T06:28:06.420Z,-0.31
2023-03-17T06:30:46.947Z,-0.36
2023-03-17T06:33:26.502Z,-0.47
2023-03-17T06:36:03.463Z,-0.46
2023-03-17T06:38:33.540Z,-0.09
2023-03-17T06:41:07.391Z,0.04
2023-03-17T06:43:37.711Z,0.11
2023-03-17T06:48:50.540Z,0.63
2023-03-17T06:51:25.006Z,0.71
2023-03-17T06:53:52.686Z,0.71
2023-03-17T06:56:30.307Z,0.69
2023-03-17T06:59:05.668Z,0.39
2023-03-17T07:01:33.756Z,0.76
2023-03-17T07:04:13.713Z,0.68
2023-03-17T07:06:42.488Z,0.73
2023-03-17T07:09:12.608Z,0.53
2023-03-17T07:11:49.393Z,0.56
2023-03-17T07:14:27.443Z,0.60
2023-03-17T07:17:00.808Z,0.57
2023-03-17T07:19:38.263Z,0.80
2023-03-17T07:22:08.788Z,1.15
2023-03-17T07:24:45.257Z,1.12
2023-03-17T07:27:23.216Z,1.42
2023-03-17T07:29:53.751Z,1.63
2023-03-17T07:32:22.152Z,1.83
2023-03-17T07:34:51.250Z,1.86
2023-03-17T07:37:21.908Z,2.11
2023-03-17T07:39:52.465Z,2.19
2023-03-17T07:42:36.482Z,2.23
2023-03-17T07:45:10.060Z,2.29
2023-03-17T07:47:41.957Z,2.47
2023-03-17T07:50:19.432Z,2.55
2023-03-17T07:52:53.136Z,2.98
2023-03-17T07:55:23.515Z,2.88
2023-03-17T07:58:07.190Z,2.97
2023-03-17T08:00:43.955Z,2.86
2023-03-17T08:03:14.227Z,3.17
2023-03-17T08:05:44.806Z,3.42
2023-03-17T08:08:21.699Z,3.63
2023-03-17T08:11:00.319Z,3.88
2023-03-17T08:13:33.334Z,3.83
2023-03-17T08:16:03.766Z,3.91
2023-03-17T08:18:35.937Z,3.84
2023-03-17T08:21:07.325Z,4.25
2023-03-17T08:23:38.960Z,4.57
2023-03-17T08:26:09.508Z,4.58
2023-03-17T08:28:40.353Z,4.54
2023-03-17T08:31:29.609Z,4.29
2023-03-17T08:34:04.939Z,4.50
2023-03-17T08:36:42.959Z,4.76
2023-03-17T08:39:13.984Z,4.62
2023-03-17T08:41:49.033Z,5.04
2023-03-17T08:44:18.101Z,4.76
2023-03-17T08:46:49.565Z,5.00
2023-03-17T08:49:23.495Z,5.26
2023-03-17T08:52:03.459Z,5.47
2023-03-17T08:54:35.906Z,5.66
2023-03-17T08:57:08.670Z,6.12
2023-03-17T08:59:37.242Z,5.69
2023-03-17T09:02:38.902Z,5.95
2023-03-17T09:05:23.138Z,5.83
2023-03-17T09:07:54.665Z,5.61
2023-03-17T09:10:26.448Z,6.10
2023-03-17T09:13:03.077Z,6.36
2023-03-17T09:18:16.975Z,7.01
2023-03-17T09:21:13.593Z,6.87
2023-03-17T09:23:50.250Z,7.29
2023-03-17T09:26:20.321Z,7.22
2023-03-17T09:28:50.789Z,7.54
2023-03-17T09:31:26.665Z,7.66
2023-03-17T09:34:01.868Z,7.55
2023-03-17T09:36:32.643Z,7.42
2023-03-17T09:39:04.578Z,7.67
2023-03-17T09:41:40.111Z,7.78
2023-03-17T09:44:25.124Z,7.75
2023-03-17T09:47:44.272Z,8.71
2023-03-17T09:50:32.289Z,8.70
2023-03-17T09:53:05.321Z,8.56
2023-03-17T09:55:36.637Z,9.08
2023-03-17T09:58:18.077Z,8.72
2023-03-17T10:01:02.596Z,9.22
2023-03-17T10:03:37.721Z,9.40
2023-03-17T10:06:46.744Z,9.17
2023-03-17T10:09:46.375Z,9.83
2023-03-17T10:12:43.542Z,9.58
2023-03-17T10:15:35.579Z,10.12
2023-03-17T10:18:13.985Z,10.20
2023-03-17T10:21:10.013Z,10.31
2023-03-17T10:23:43.377Z,10.14
2023-03-17T10:26:42.273Z,10.88
2023-03-17T10:29:24.491Z,10.94
2023-03-17T10:32:00.005Z,10.88
2023-03-17T10:34:55.355Z,11.06
2023-03-17T10:37:26.796Z,11.25
2023-03-17T10:40:12.328Z,11.12
2023-03-17T10:42:52.967Z,11.29
2023-03-17T10:45:37.345Z,11.48
2023-03-17T10:48:23.059Z,11.52
2023-03-17T10:50:54.408Z,11.56
2023-03-17T10:53:32.355Z,12.07
2023-03-17T10:56:14.852Z,12.15
2023-03-17T10:59:27.273Z,12.20
2023-03-17T11:02:00.825Z,12.57
2023-03-17T11:04:44.072Z,12.53
2023-03-17T11:07:23.361Z,12.58
2023-03-17T11:09:55.735Z,13.17
2023-03-17T11:13:00.567Z,12.91
2023-03-17T11:15:48.094Z,12.84
2023-03-17T11:18:32.004Z,13.16
2023-03-17T11:21:16.052Z,13.52
2023-03-17T11:23:59.359Z,13.47
2023-03-17T11:26:57.604Z,13.23
2023-03-17T11:30:34.677Z,13.50
2023-03-17T11:33:52.203Z,12.90
2023-03-17T11:36:48.882Z,14.16
2023-03-17T11:39:51.420Z,12.98
2023-03-17T11:42:50.724Z,13.69
2023-03-17T11:45:51.495Z,13.93
2023-03-17T11:48:24.728Z,13.78
2023-03-17T11:51:28.451Z,14.08
2023-03-17T11:54:26.034Z,14.29
2023-03-17T11:57:01.523Z,14.91
2023-03-17T11:59:57.218Z,14.55
2023-03-17T12:02:37.733Z,14.48
2023-03-17T12:05:19.717Z,14.97
2023-03-17T12:07:48.305Z,15.11
2023-03-17T12:10:41.093Z,14.93
2023-03-17T12:13:40.189Z,14.50
2023-03-17T12:16:22.740Z,15.44
2023-03-17T12:19:27.445Z,15.82
2023-03-17T12:22:29.459Z,15.84
2023-03-17T12:25:22.015Z,15.68
2023-03-17T12:28:04.161Z,15.59
2023-03-17T12:30:51.941Z,16.12
2023-03-17T12:33:37.957Z,16.22
2023-03-17T12:36:08.914Z,16.22
2023-03-17T12:38:46.197Z,16.12
2023-03-17T12:45:06.407Z,17.21
2023-03-17T12:48:04.389Z,16.99
2023-03-17T12:51:09.207Z,17.09
2023-03-17T12:53:52.120Z,17.56
2023-03-17T12:56:43.822Z,17.32
2023-03-17T12:59:23.021Z,17.26
2023-03-17T13:02:27.360Z,16.52
2023-03-17T13:05:15.254Z,16.97
2023-03-17T13:07:56.740Z,16.51
2023-03-17T13:10:57.630Z,17.65
2023-03-17T13:13:51.957Z,16.42
2023-03-17T13:16:48.916Z,17.29
2023-03-17T13:19:40.602Z,18.87
2023-03-17T13:22:19.262Z,18.75
2023-03-17T13:24:57.733Z,18.25
2023-03-17T13:27:36.545Z,18.46
2023-03-17T13:30:32.396Z,18.10
2023-03-17T13:33:20.523Z,18.94
2023-03-17T13:36:43.336Z,18.81
2023-03-17T13:39:38.900Z,17.62
2023-03-17T13:42:24.086Z,17.81
2023-03-17T13:45:50.481Z,17.65
2023-03-17T13:48:59.926Z,17.80
2023-03-17T13:51:34.480Z,18.36
2023-03-17T13:54:30.298Z,18.54
2023-03-17T13:57:25.771Z,18.28
2023-03-17T14:00:31.176Z,18.02
2023-03-17T14:03:39.484Z,17.97
2023-03-17T14:06:09.865Z,18.15
2023-03-17T14:09:16.550Z,18.50
2023-03-17T14:11:50.548Z,19.92
2023-03-17T14:14:42.654Z,21.57
2023-03-17T14:17:32.074Z,21.70
2023-03-17T14:20:35.279Z,22.44
2023-03-17T14:23:06.867Z,22.32
2023-03-17T14:25:40.297Z,21.76
2023-03-17T14:28:19.998Z,21.72
2023-03-17T14:31:07.221Z,21.95
2023-03-17T14:33:45.450Z,20.84
2023-03-17T14:36:21.547Z,20.45
2023-03-17T14:38:57.955Z,20.29
2023-03-17T14:41:29.231Z,20.11
2023-03-17T14:44:10.996Z,19.52
2023-03-17T14:46:42.681Z,19.13
2023-03-17T14:49:30.938Z,20.04
2023-03-17T14:52:01.754Z,19.58
2023-03-17T14:54:55.521Z,18.83
2023-03-17T14:57:34.452Z,18.26
2023-03-17T15:00:32.955Z,17.91
2023-03-17T15:03:07.329Z,17.34
2023-03-17T15:05:53.105Z,17.66
2023-03-17T15:08:52.157Z,18.03
2023-03-17T15:11:30.421Z,18.48
2023-03-17T15:14:25.361Z,17.34
2023-03-17T15:16:59.248Z,17.79
2023-03-17T15:19:40.297Z,18.24
2023-03-17T15:22:38.185Z,18.28
2023-03-17T15:25:21.223Z,18.52
2023-03-17T15:27:52.624Z,18.55
2023-03-17T15:30:29.446Z,18.27
2023-03-17T15:33:03.300Z,18.58
2023-03-17T15:35:34.454Z,18.75
2023-03-17T15:38:12.604Z,19.53
2023-03-17T15:40:46.284Z,18.38
2023-03-17T15:43:22.351Z,18.67
2023-03-17T15:46:04.622Z,18.93
2023-03-17T15:48:42.687Z,19.00
2023-03-17T15:51:19.863Z,18.53
2023-03-17T15:53:54.985Z,18.54
2023-03-17T15:56:26.450Z,17.54
2023-03-17T15:58:57.182Z,17.40
2023-03-17T16:01:29.065Z,17.85
2023-03-17T16:03:59.236Z,17.74
2023-03-17T16:06:32.567Z,16.42
2023-03-17T16:09:04.829Z,15.61
2023-03-17T16:11:40.359Z,15.56
2023-03-17T16:14:18.253Z,15.38
2023-03-17T16:16:56.788Z,15.17
2023-03-17T16:19:30.454Z,14.60
2023-03-17T16:22:06.634Z,14.61
2023-03-17T16:24:37.009Z,14.45
2023-03-17T16:27:19.362Z,14.37
2023-03-17T16:29:54.991Z,14.07
2023-03-17T16:32:26.060Z,13.80
2023-03-17T16:34:56.685Z,14.02
2023-03-17T16:40:20.111Z,13.72
2023-03-17T16:42:53.872Z,13.63
2023-03-17T16:45:33.331Z,13.44
2023-03-17T16:48:07.121Z,13.37
2023-03-17T16:50:39.089Z,12.97
2023-03-17T16:56:02.029Z,12.70
2023-03-17T16:58:38.092Z,11.90
2023-03-17T17:01:18.704Z,11.89
2023-03-17T17:03:49.744Z,11.73
2023-03-17T17:06:20.093Z,11.63
2023-03-17T17:08:50.757Z,11.06
2023-03-17T17:11:31.813Z,10.75
2023-03-17T17:14:07.967Z,11.25
2023-03-17T17:16:40.073Z,10.95
2023-03-17T17:19:26.676Z,10.51
2023-03-17T17:22:18.068Z,10.52
2023-03-17T17:24:56.512Z,11.05
2023-03-17T17:27:26.667Z,10.80
2023-03-17T17:30:04.904Z,10.26
2023-03-17T17:32:39.177Z,10.44
2023-03-17T17:35:12.469Z,10.33
2023-03-17T17:37:40.664Z,10.73
2023-03-17T17:40:19.430Z,11.04
2023-03-17T17:42:58.704Z,11.12
2023-03-17T17:45:29.796Z,11.03
2023-03-17T17:48:07.051Z,10.89
2023-03-17T17:50:37.332Z,11.03
2023-03-17T17:53:13.792Z,10.92
2023-03-17T17:55:54.008Z,10.31
2023-03-17T17:58:26.612Z,10.23
2023-03-17T18:01:04.671Z,10.00
2023-03-17T18:03:41.452Z,10.11
2023-03-17T18:06:15.699Z,9.70
2023-03-17T18:08:47.254Z,9.67
2023-03-17T18:11:24.886Z,9.63
2023-03-17T18:14:05.101Z,9.43
2023-03-17T18:16:36.001Z,9.15
2023-03-17T18:19:24.328Z,8.88
2023-03-17T18:21:52.533Z,8.55
2023-03-17T18:24:25.528Z,8.88
2023-03-17T18:27:06.187Z,8.83
2023-03-17T18:29:38.101Z,9.04
2023-03-17T18:32:10.946Z,8.78
2023-03-17T18:34:43.871Z,8.60
2023-03-17T18:37:14.600Z,8.29
2023-03-17T18:39:52.953Z,8.35
2023-03-17T18:42:33.501Z,7.55
2023-03-17T18:45:13.575Z,7.82
2023-03-17T18:53:22.958Z,7.17
2023-03-17T18:56:01.259Z,7.37
2023-03-17T18:58:38.016Z,7.15
2023-03-17T19:01:11.526Z,7.09
2023-03-17T19:03:42.827Z,7.24
2023-03-17T19:06:15.097Z,7.24
2023-03-17T19:08:45.877Z,6.46
2023-03-17T19:11:24.617Z,6.99
2023-03-17T19:14:02.522Z,6.77
2023-03-17T19:16:38.691Z,6.37
2023-03-17T19:19:18.763Z,6.16
2023-03-17T19:21:46.564Z,5.96
2023-03-17T19:27:06.414Z,6.21
2023-03-17T19:29:39.891Z,6.55
2023-03-17T19:32:07.879Z,6.19
2023-03-17T19:34:45.400Z,6.12
2023-03-17T19:37:27.210Z,6.20
2023-03-17T19:40:01.191Z,6.06
2023-03-17T19:42:29.183Z,6.04
2023-03-17T19:45:03.423Z,6.48
2023-03-17T19:47:41.617Z,6.24
2023-03-17T19:50:10.341Z,6.35
2023-03-17T19:52:43.434Z,5.86
2023-03-17T19:57:59.276Z,5.34
2023-03-17T20:00:47.088Z,5.48
2023-03-17T20:03:17.365Z,5.29
2023-03-17T20:05:54.708Z,5.63
2023-03-17T20:08:28.633Z,5.32
2023-03-17T20:11:16.083Z,5.39
2023-03-17T20:13:46.471Z,5.36
2023-03-17T20:16:16.906Z,5.18
2023-03-17T20:18:59.450Z,5.51
2023-03-17T20:21:29.649Z,5.57
2023-03-17T20:26:52.372Z,5.32
2023-03-17T20:29:24.729Z,5.38
2023-03-17T20:31:53.110Z,4.90
2023-03-17T20:34:24.184Z,5.14
2023-03-17T20:37:01.537Z,5.41
2023-03-17T20:39:31.242Z,5.12
2023-03-17T20:42:16.379Z,5.39
2023-03-17T20:44:53.262Z,5.26
2023-03-17T20:47:27.515Z,4.61
2023-03-17T20:50:09.990Z,4.35
2023-03-17T20:52:41.055Z,4.39
2023-03-17T20:55:29.001Z,4.43
2023-03-17T20:58:00.006Z,4.94
2023-03-17T21:00:32.652Z,4.25
2023-03-17T21:03:11.023Z,4.38
2023-03-17T21:05:41.611Z,4.30
2023-03-17T21:08:11.973Z,4.54
2023-03-17T21:10:42.558Z,4.41
2023-03-17T21:13:13.252Z,3.87
2023-03-17T21:15:50.958Z,3.88
2023-03-17T21:18:21.764Z,3.70
2023-03-17T21:20:52.649Z,3.86
2023-03-17T21:23:23.145Z,3.87
2023-03-17T21:26:11.760Z,3.39
2023-03-17T21:28:42.316Z,3.08
2023-03-17T21:31:12.465Z,3.02
2023-03-17T21:33:49.512Z,2.92
2023-03-17T21:36:27.399Z,2.90
2023-03-17T21:38:59.093Z,3.33
2023-03-17T21:41:39.480Z,3.52
2023-03-17T21:44:21.043Z,3.76
2023-03-17T21:46:55.439Z,3.73
2023-03-17T21:49:26.639Z,3.87
2023-03-17T21:54:40.414Z,3.41
2023-03-17T21:57:20.472Z,3.53
2023-03-17T21:59:59.714Z,2.72
2023-03-17T22:02:32.566Z,3.31
2023-03-17T22:05:03.168Z,3.35
2023-03-17T22:07:35.213Z,3.45
2023-03-17T22:10:09.520Z,3.55
2023-03-17T22:12:41.856Z,3.47
2023-03-17T22:15:18.447Z,3.67
2023-03-17T22:17:56.460Z,3.60
2023-03-17T22:23:11.258Z,3.00
2023-03-17T22:25:45.420Z,3.09
2023-03-17T22:28:19.434Z,3.05
2023-03-17T22:31:05.873Z,3.02
2023-03-17T22:33:36.842Z,2.96
2023-03-17T22:36:07.514Z,2.96
2023-03-17T22:38:47.767Z,3.09
2023-03-17T22:41:19.576Z,3.05
2023-03-17T22:43:51.393Z,3.17
2023-03-17T22:46:22.066Z,2.84
2023-03-17T22:48:53.671Z,2.78
2023-03-17T22:51:28.952Z,2.91
2023-03-17T22:54:05.875Z,2.50
2023-03-17T22:56:41.391Z,2.56
2023-03-17T22:59:11.942Z,2.36
2023-03-17T23:02:01.707Z,2.17
2023-03-17T23:04:34.943Z,2.28
2023-03-17T23:07:12.717Z,2.94
2023-03-17T23:09:49.026Z,2.62
2023-03-17T23:15:03.782Z,2.47
2023-03-17T23:17:41.209Z,1.95
2023-03-17T23:20:20.562Z,1.99
2023-03-17T23:22:53.105Z,2.18
2023-03-17T23:25:21.625Z,2.11
2023-03-17T23:27:52.697Z,1.82
2023-03-17T23:30:24.352Z,2.08
2023-03-17T23:32:58.563Z,1.90
2023-03-17T23:35:29.213Z,1.93
2023-03-17T23:38:00.438Z,1.99
2023-03-17T23:40:31.061Z,2.17
2023-03-17T23:43:10.451Z,1.90
2023-03-17T23:45:42.458Z,1.82
2023-03-17T23:48:16.563Z,2.34
2023-03-17T23:50:46.415Z,2.65
2023-03-17T23:53:17.991Z,2.29
2023-03-17T23:55:48.470Z,2.28
2023-03-17T23:58:27.425Z,2.47
